Time;durP1;ratioP1;P1;durP2;ratioP2;P2;SDS_P1;SDS_P2;PMS_P1;PMS_P2;Temp;Humidity;BMP_temperature;BMP_pressure;BME280_temperature;BME280_humidity;BME280_pressure;Samples;Min_cycle;Max_cycle;Signal;HPM_P1;HPM_P2
2022/01/14 00:02:08;;;;;;;26.45;13.82;;;5.40;99.90;;;;;;5010095;28;20100;-81
2022/01/14 00:04:35;;;;;;;23.85;13.65;;;5.50;99.90;;;;;;5004158;28;20052;-82
2022/01/14 00:07:01;;;;;;;25.58;12.02;;;5.50;99.90;;;;;;5003763;28;20037;-85
2022/01/14 00:09:27;;;;;;;25.75;12.77;;;5.50;99.90;;;;;;5005922;28;20044;-89
2022/01/14 00:11:57;;;;;;;25.92;13.25;;;5.30;99.90;;;;;;5006982;28;20050;-84
2022/01/14 00:14:58;;;;;;;31.77;12.02;;;5.50;99.90;;;;;;5004011;28;20048;-88
2022/01/14 00:17:15;;;;;;;19.15;10.00;;;5.60;99.90;;;;;;5005894;28;20056;-90
2022/01/14 00:19:42;;;;;;;17.45;10.20;;;5.60;99.90;;;;;;5001202;28;20046;-90
2022/01/14 00:22:12;;;;;;;20.75;9.73;;;5.60;99.90;;;;;;5016696;28;20043;-86
2022/01/14 00:33:09;;;;;;;31.52;12.80;;;5.70;99.90;;;;;;5008235;28;20049;-87
2022/01/14 00:35:43;;;;;;;23.75;11.43;;;5.70;99.90;;;;;;4999356;28;20042;-89
2022/01/14 00:38:13;;;;;;;26.45;11.75;;;5.70;99.90;;;;;;5010796;28;20134;-87
2022/01/14 00:40:40;;;;;;;23.60;12.32;;;5.60;99.90;;;;;;5003345;28;20050;-88
2022/01/14 00:43:06;;;;;;;29.25;13.45;;;7.70;99.90;;;;;;4991819;28;20042;-88
2022/01/14 00:45:31;;;;;;;28.70;13.68;;;5.70;99.90;;;;;;5001557;28;20649;-88
2022/01/14 00:47:59;;;;;;;26.65;13.13;;;5.70;99.90;;;;;;5004850;28;20040;-89
2022/01/14 00:50:24;;;;;;;27.42;13.85;;;5.60;99.90;;;;;;5002785;28;20042;-89
2022/01/14 00:52:50;;;;;;;27.80;13.68;;;5.60;99.90;;;;;;5002868;28;20567;-89
2022/01/14 00:55:18;;;;;;;30.02;15.00;;;5.60;99.90;;;;;;4987947;28;20133;-90
2022/01/14 01:00:33;;;;;;;26.75;15.20;;;5.60;99.90;;;;;;5002676;28;20050;-89
2022/01/14 01:02:59;;;;;;;23.90;15.02;;;6.30;99.90;;;;;;5000808;28;20038;-89
2022/01/14 01:05:26;;;;;;;30.92;15.60;;;5.50;99.90;;;;;;4999001;28;20509;-88
2022/01/14 01:08:05;;;;;;;28.92;14.45;;;5.50;99.90;;;;;;5008283;28;20243;-85
2022/01/14 01:10:32;;;;;;;38.75;17.00;;;5.50;99.90;;;;;;5008315;28;20046;-89
2022/01/14 01:13:07;;;;;;;33.08;13.80;;;5.40;99.90;;;;;;5004115;28;20054;-84
2022/01/14 01:15:33;;;;;;;32.38;14.45;;;5.60;99.90;;;;;;4995876;28;20057;-84
2022/01/14 01:17:58;;;;;;;27.20;15.20;;;5.30;99.90;;;;;;5003466;28;20038;-88
2022/01/14 01:20:24;;;;;;;30.67;15.45;;;5.40;99.90;;;;;;5001487;28;20095;-87
2022/01/14 01:22:51;;;;;;;30.20;15.30;;;5.30;99.90;;;;;;5000199;28;20042;-87
2022/01/14 01:25:21;;;;;;;25.35;14.93;;;5.30;99.90;;;;;;5003186;28;20045;-90
2022/01/14 01:27:48;;;;;;;36.33;16.95;;;5.40;99.90;;;;;;4990829;28;20045;-89
2022/01/14 01:30:26;;;;;;;35.67;16.58;;;5.30;99.90;;;;;;4987590;28;20057;-90
2022/01/14 01:32:52;;;;;;;31.75;15.88;;;5.40;99.90;;;;;;5007174;28;20403;-89
2022/01/14 01:35:18;;;;;;;31.67;16.15;;;5.30;99.90;;;;;;4989369;28;20038;-88
2022/01/14 01:37:44;;;;;;;32.63;16.80;;;5.20;99.90;;;;;;5000605;28;20556;-91
2022/01/14 01:40:10;;;;;;;34.13;17.52;;;6.70;99.90;;;;;;4997225;28;20041;-91
2022/01/14 01:42:39;;;;;;;28.67;15.30;;;5.30;99.90;;;;;;5006847;28;20382;-89
2022/01/14 01:45:09;;;;;;;30.35;15.85;;;5.00;99.90;;;;;;5000081;28;20046;-84
2022/01/14 01:47:37;;;;;;;31.92;16.65;;;5.30;99.90;;;;;;5006042;28;20120;-91
2022/01/14 01:50:14;;;;;;;37.80;16.52;;;5.20;99.90;;;;;;5003152;28;20049;-91
2022/01/14 01:52:41;;;;;;;37.63;17.40;;;6.10;99.90;;;;;;5003112;28;20096;-90
2022/01/14 01:55:08;;;;;;;30.60;16.63;;;5.30;99.90;;;;;;5009175;28;20041;-91
2022/01/14 01:57:35;;;;;;;31.75;17.65;;;5.30;99.90;;;;;;5001318;28;20050;-88
2022/01/14 02:00:04;;;;;;;30.75;16.90;;;5.30;99.90;;;;;;5009346;28;20073;-86
2022/01/14 02:02:30;;;;;;;27.90;15.70;;;5.20;99.90;;;;;;5002071;28;20038;-90
2022/01/14 02:04:56;;;;;;;33.15;16.60;;;5.30;99.90;;;;;;4997258;28;20104;-90
2022/01/14 02:07:22;;;;;;;28.52;15.27;;;4.80;99.90;;;;;;5001460;28;20387;-90
2022/01/14 02:09:48;;;;;;;29.10;17.38;;;5.30;99.90;;;;;;5002082;28;20048;-89
2022/01/14 02:12:13;;;;;;;38.20;16.95;;;5.40;99.90;;;;;;4998963;28;20042;-89
2022/01/14 02:22:50;;;;;;;32.13;15.95;;;8.00;99.90;;;;;;4970469;28;20061;-90
2022/01/14 02:25:23;;;;;;;23.83;14.05;;;5.50;99.90;;;;;;5001666;28;20038;-89
2022/01/14 02:27:50;;;;;;;27.90;15.82;;;5.50;99.90;;;;;;4999321;28;20049;-90
2022/01/14 02:30:15;;;;;;;25.83;15.23;;;6.90;99.90;;;;;;5000893;28;20085;-90
2022/01/14 02:32:41;;;;;;;29.55;15.68;;;7.00;99.90;;;;;;4983879;28;20520;-91
2022/01/14 02:35:08;;;;;;;33.92;18.08;;;5.50;99.90;;;;;;5005313;28;20042;-91
2022/01/14 02:37:34;;;;;;;28.70;15.68;;;5.50;99.90;;;;;;5007887;28;20042;-87
2022/01/14 02:40:00;;;;;;;33.17;16.65;;;5.60;99.90;;;;;;5002680;28;20462;-83
2022/01/14 02:42:26;;;;;;;29.75;15.85;;;5.60;99.90;;;;;;5009078;28;20072;-87
2022/01/14 02:44:57;;;;;;;34.05;16.13;;;5.60;99.90;;;;;;5008600;28;20460;-87
2022/01/14 02:47:22;;;;;;;31.45;17.05;;;5.60;99.90;;;;;;4985939;28;20050;-88
2022/01/14 02:49:48;;;;;;;26.48;17.30;;;5.60;99.90;;;;;;5005371;28;20038;-89
2022/01/14 02:52:13;;;;;;;31.60;17.58;;;5.60;99.90;;;;;;5005233;28;20043;-88
2022/01/14 02:54:51;;;;;;;33.38;16.67;;;5.60;99.90;;;;;;5010396;28;20037;-89
2022/01/14 02:57:18;;;;;;;32.58;17.83;;;5.60;99.90;;;;;;5003806;28;20119;-87
2022/01/14 02:59:45;;;;;;;36.83;17.27;;;5.50;99.90;;;;;;5011975;28;20486;-89
2022/01/14 03:02:12;;;;;;;36.47;17.08;;;7.40;99.90;;;;;;5002055;28;20039;-88
2022/01/14 03:04:41;;;;;;;39.97;17.73;;;7.60;99.90;;;;;;5009861;28;20432;-86
2022/01/14 03:07:10;;;;;;;30.67;16.70;;;5.20;99.90;;;;;;5013283;28;20046;-90
2022/01/14 03:09:37;;;;;;;35.97;17.67;;;5.50;99.90;;;;;;5012738;28;20383;-89
2022/01/14 03:12:03;;;;;;;34.15;16.42;;;5.60;99.90;;;;;;5009359;28;20052;-86
2022/01/14 03:14:29;;;;;;;42.83;17.70;;;5.60;99.90;;;;;;5012904;28;20042;-88
2022/01/14 03:16:58;;;;;;;28.42;16.13;;;5.60;99.90;;;;;;5004894;28;20502;-90
2022/01/14 03:19:25;;;;;;;41.92;16.38;;;5.60;99.90;;;;;;5011580;28;20077;-89
2022/01/14 03:22:06;;;;;;;33.55;15.80;;;5.60;99.90;;;;;;5010143;28;20052;-88
2022/01/14 03:27:01;;;;;;;41.17;17.30;;;5.60;99.90;;;;;;5003829;28;20494;-90
2022/01/14 03:29:27;;;;;;;31.80;16.65;;;5.60;99.90;;;;;;5004599;28;20057;-88
2022/01/14 03:31:52;;;;;;;34.95;16.73;;;5.60;99.90;;;;;;4993542;28;20061;-89
2022/01/14 03:34:18;;;;;;;37.30;16.35;;;5.60;99.90;;;;;;5005913;28;20521;-87
2022/01/14 03:36:44;;;;;;;35.80;16.60;;;5.60;99.90;;;;;;5011941;28;20081;-88
2022/01/14 03:39:10;;;;;;;31.58;15.57;;;5.70;99.90;;;;;;5005336;28;20040;-91
2022/01/14 03:41:35;;;;;;;34.30;16.25;;;5.70;99.90;;;;;;5003715;28;20153;-88
2022/01/14 03:44:01;;;;;;;36.22;15.55;;;5.70;99.90;;;;;;5003025;28;20474;-91
2022/01/14 03:46:26;;;;;;;35.08;17.02;;;5.70;99.90;;;;;;5006341;28;20034;-89
2022/01/14 03:48:52;;;;;;;36.80;15.75;;;7.70;99.90;;;;;;5003902;28;20054;-90
2022/01/14 03:51:19;;;;;;;27.35;15.85;;;5.70;99.90;;;;;;5010723;28;20056;-89
2022/01/14 03:53:47;;;;;;;34.15;17.20;;;5.60;99.90;;;;;;5003452;28;20543;-90
2022/01/14 03:56:13;;;;;;;30.77;15.20;;;5.60;99.90;;;;;;5006482;28;20041;-90
2022/01/14 03:58:40;;;;;;;28.48;14.68;;;5.70;99.90;;;;;;5004039;28;20060;-90
2022/01/14 04:01:07;;;;;;;26.13;14.02;;;6.00;99.90;;;;;;5002536;28;20052;-84
2022/01/14 04:03:33;;;;;;;29.63;15.05;;;5.80;99.90;;;;;;5001090;28;20151;-82
2022/01/14 04:05:59;;;;;;;28.15;15.75;;;5.40;99.90;;;;;;4999282;28;20041;-83
2022/01/14 04:08:25;;;;;;;35.15;15.40;;;5.70;99.90;;;;;;5003112;28;20050;-87
2022/01/14 04:10:53;;;;;;;30.23;15.00;;;5.80;99.90;;;;;;4997545;28;20054;-89
2022/01/14 04:13:23;;;;;;;31.73;14.57;;;5.80;99.90;;;;;;5001586;28;20046;-84
2022/01/14 04:15:49;;;;;;;34.70;14.00;;;5.80;99.90;;;;;;5001778;28;20482;-87
2022/01/14 04:18:20;;;;;;;33.05;15.57;;;6.00;99.90;;;;;;5005651;28;20054;-87
2022/01/14 04:20:48;;;;;;;25.38;14.18;;;5.90;99.90;;;;;;5008270;28;20145;-88
2022/01/14 04:23:18;;;;;;;32.03;14.00;;;8.10;99.90;;;;;;4997461;28;20169;-87
2022/01/14 04:25:44;;;;;;;34.30;15.25;;;5.90;99.90;;;;;;5001276;28;20045;-90
2022/01/14 04:28:10;;;;;;;25.58;14.90;;;5.90;99.90;;;;;;5003740;28;20049;-90
2022/01/14 04:30:36;;;;;;;29.67;15.48;;;8.00;99.90;;;;;;5003073;28;20101;-90
2022/01/14 04:33:03;;;;;;;35.30;13.65;;;5.90;99.90;;;;;;5003526;28;20077;-88
2022/01/14 04:35:29;;;;;;;32.00;16.75;;;5.90;99.90;;;;;;5004110;28;20043;-90
2022/01/14 04:37:55;;;;;;;35.92;16.15;;;5.90;99.90;;;;;;5003716;28;20045;-90
2022/01/14 04:40:21;;;;;;;36.53;15.90;;;5.90;99.90;;;;;;4988461;28;20095;-90
2022/01/14 04:42:47;;;;;;;31.15;16.00;;;5.80;99.90;;;;;;5009584;28;20042;-91
2022/01/14 04:45:27;;;;;;;34.40;16.55;;;5.80;99.90;;;;;;4990125;28;20518;-87
2022/01/14 04:47:54;;;;;;;39.53;16.70;;;5.80;99.90;;;;;;5002647;28;20085;-88
2022/01/14 04:50:22;;;;;;;27.55;14.43;;;5.70;99.90;;;;;;5004579;28;20034;-91
2022/01/14 04:52:48;;;;;;;21.50;15.15;;;5.70;99.90;;;;;;4993786;28;20397;-91
2022/01/14 04:55:17;;;;;;;30.00;14.73;;;5.60;99.90;;;;;;5007235;28;20038;-90
2022/01/14 04:57:44;;;;;;;32.70;15.43;;;5.70;99.90;;;;;;5002004;28;20054;-90
2022/01/14 05:00:16;;;;;;;33.15;14.45;;;5.70;99.90;;;;;;5001918;28;20037;-88
2022/01/14 05:02:42;;;;;;;38.17;16.42;;;5.70;99.90;;;;;;5009381;28;20041;-91
2022/01/14 05:05:10;;;;;;;29.15;15.15;;;5.70;99.90;;;;;;5000283;28;20038;-81
2022/01/14 05:07:37;;;;;;;43.35;17.60;;;5.70;99.90;;;;;;4989140;28;20504;-82
2022/01/14 05:12:36;;;;;;;34.30;15.63;;;5.70;99.90;;;;;;4995680;28;20051;-89
2022/01/14 05:15:03;;;;;;;36.88;17.20;;;5.70;99.90;;;;;;5007124;28;20042;-88
2022/01/14 05:17:29;;;;;;;33.08;16.00;;;5.80;99.90;;;;;;4982330;28;20046;-89
2022/01/14 05:19:55;;;;;;;30.15;15.50;;;5.70;99.90;;;;;;5002455;28;20038;-89
2022/01/14 05:22:21;;;;;;;28.58;14.93;;;5.60;99.90;;;;;;5001808;28;20402;-89
2022/01/14 05:24:47;;;;;;;30.17;15.27;;;5.60;99.90;;;;;;5009957;28;20065;-89
2022/01/14 05:27:13;;;;;;;42.50;17.40;;;5.50;99.90;;;;;;5003053;28;20524;-89
2022/01/14 05:29:39;;;;;;;32.63;15.60;;;5.60;99.90;;;;;;5010243;28;20069;-89
2022/01/14 05:32:09;;;;;;;32.75;17.02;;;5.50;99.90;;;;;;5021120;28;20487;-87
2022/01/14 05:34:36;;;;;;;30.73;16.98;;;5.60;99.90;;;;;;5003738;28;20033;-89
2022/01/14 05:37:03;;;;;;;35.30;17.83;;;5.40;99.90;;;;;;4998746;28;20048;-88
2022/01/14 05:39:29;;;;;;;39.05;18.27;;;5.50;99.90;;;;;;5004439;28;20049;-88
2022/01/14 05:41:56;;;;;;;36.08;15.95;;;5.50;99.90;;;;;;5002983;28;20042;-88
2022/01/14 05:44:26;;;;;;;28.55;16.08;;;5.50;99.90;;;;;;5002679;28;20041;-86
2022/01/14 05:46:53;;;;;;;39.30;19.10;;;7.60;99.90;;;;;;5005924;28;20037;-84
2022/01/14 05:49:20;;;;;;;29.25;16.65;;;5.40;99.90;;;;;;4998649;28;20042;-82
2022/01/14 05:51:46;;;;;;;36.30;17.95;;;5.10;99.90;;;;;;5018405;28;20041;-88
2022/01/14 05:54:13;;;;;;;36.70;18.63;;;7.40;99.90;;;;;;5000858;28;20494;-84
2022/01/14 05:56:38;;;;;;;37.75;17.52;;;5.40;99.90;;;;;;5007407;28;20065;-87
2022/01/14 05:59:04;;;;;;;36.92;16.95;;;5.40;99.90;;;;;;5002813;28;20038;-88
2022/01/14 06:01:33;;;;;;;35.63;19.02;;;7.70;99.90;;;;;;4998640;28;20045;-86
2022/01/14 06:04:00;;;;;;;39.90;17.63;;;5.50;99.90;;;;;;5008695;28;20233;-87
2022/01/14 06:06:26;;;;;;;40.40;17.52;;;5.50;99.90;;;;;;5003077;28;20132;-85
2022/01/14 06:08:52;;;;;;;27.48;17.42;;;5.40;99.90;;;;;;4982973;28;20458;-84
2022/01/14 06:11:18;;;;;;;33.53;16.10;;;5.50;99.90;;;;;;4983623;28;20038;-85
2022/01/14 06:13:44;;;;;;;26.13;15.75;;;5.60;99.90;;;;;;5007277;28;20081;-85
2022/01/14 06:16:10;;;;;;;34.65;17.02;;;7.60;99.90;;;;;;4998124;28;20066;-85
2022/01/14 06:18:36;;;;;;;31.50;17.20;;;5.40;99.90;;;;;;4981652;28;20042;-86
2022/01/14 06:21:03;;;;;;;32.38;17.45;;;6.90;99.90;;;;;;5009459;28;20049;-85
2022/01/14 06:23:28;;;;;;;32.25;16.10;;;5.30;99.90;;;;;;5007999;28;20143;-85
2022/01/14 06:25:54;;;;;;;34.78;16.00;;;4.20;99.90;;;;;;5008591;28;20490;-87
2022/01/14 06:28:20;;;;;;;32.90;17.00;;;6.00;99.90;;;;;;5011645;28;20087;-85
2022/01/14 06:30:45;;;;;;;31.77;16.95;;;6.50;99.90;;;;;;4997128;28;20042;-84
2022/01/14 06:33:11;;;;;;;33.88;15.93;;;4.90;99.90;;;;;;5012360;28;20046;-84
2022/01/14 06:35:37;;;;;;;31.30;15.63;;;7.10;99.90;;;;;;5012539;28;20752;-85
2022/01/14 06:38:03;;;;;;;35.88;14.75;;;7.70;99.90;;;;;;5009675;28;20092;-85
2022/01/14 06:40:30;;;;;;;38.10;15.40;;;5.10;99.90;;;;;;5005865;28;20092;-88
2022/01/14 06:42:55;;;;;;;24.33;13.45;;;4.80;99.90;;;;;;5005127;28;20041;-84
2022/01/14 06:45:22;;;;;;;32.30;15.07;;;5.10;99.90;;;;;;4996365;28;20121;-87
2022/01/14 06:47:48;;;;;;;32.30;14.38;;;6.30;99.90;;;;;;5013448;28;20049;-86
2022/01/14 06:50:14;;;;;;;32.53;15.13;;;5.00;99.90;;;;;;5011693;28;20060;-85
2022/01/14 06:52:40;;;;;;;32.97;13.77;;;5.20;99.90;;;;;;5012802;28;20045;-87
2022/01/14 06:55:06;;;;;;;20.27;13.45;;;6.70;99.90;;;;;;5012552;28;20045;-86
2022/01/14 06:57:32;;;;;;;25.40;13.68;;;5.90;99.90;;;;;;5012728;28;20046;-87
2022/01/14 06:59:58;;;;;;;31.00;13.35;;;4.90;99.90;;;;;;5012224;28;20176;-88
2022/01/14 07:02:23;;;;;;;30.92;14.45;;;6.30;99.90;;;;;;5012534;28;20038;-86
2022/01/14 07:04:49;;;;;;;29.27;12.95;;;5.10;99.90;;;;;;5011857;28;20115;-85
2022/01/14 07:07:15;;;;;;;26.95;12.68;;;6.60;99.90;;;;;;5007652;28;20046;-86
2022/01/14 07:09:56;;;;;;;27.75;12.40;;;6.90;99.90;;;;;;5007582;28;20042;-86
2022/01/14 07:12:26;;;;;;;28.63;14.82;;;5.00;99.90;;;;;;4984364;28;20141;-86
2022/01/14 07:14:53;;;;;;;23.45;11.88;;;5.80;99.90;;;;;;5012169;28;20196;-86
2022/01/14 07:17:23;;;;;;;28.00;13.15;;;6.70;99.90;;;;;;5003854;28;20129;-87
2022/01/14 07:19:51;;;;;;;34.00;13.00;;;5.80;99.90;;;;;;5005985;28;20046;-87
2022/01/14 07:22:17;;;;;;;25.33;12.25;;;4.80;99.90;;;;;;4986418;28;20045;-86
2022/01/14 07:24:44;;;;;;;25.25;12.18;;;;;;;;;;5003259;28;20042;-88
2022/01/14 07:27:10;;;;;;;30.33;13.32;;;5.80;99.90;;;;;;5012675;28;20398;-89
2022/01/14 07:29:36;;;;;;;26.92;12.75;;;6.70;99.90;;;;;;4311271;28;10000780;-88
2022/01/14 07:32:04;;;;;;;29.10;12.38;;;7.40;99.90;;;;;;5000611;28;20073;-88
2022/01/14 07:34:30;;;;;;;26.70;12.43;;;5.80;99.90;;;;;;5002643;28;20035;-81
2022/01/14 07:36:56;;;;;;;31.05;12.88;;;5.80;99.90;;;;;;5003194;28;20042;-84
2022/01/14 07:39:23;;;;;;;25.48;12.77;;;5.70;99.90;;;;;;4999878;28;20050;-83
2022/01/14 07:41:49;;;;;;;25.92;12.52;;;5.70;99.90;;;;;;5004477;28;20062;-85
2022/01/14 07:44:15;;;;;;;24.27;11.15;;;5.80;99.90;;;;;;4999103;28;20057;-86
2022/01/14 07:46:42;;;;;;;26.00;11.02;;;5.70;99.90;;;;;;4998061;28;20391;-87
2022/01/14 07:49:09;;;;;;;23.25;10.07;;;5.90;99.90;;;;;;5024109;28;20038;-88
2022/01/14 07:51:35;;;;;;;29.52;12.07;;;5.60;99.90;;;;;;5026514;28;20042;-87
2022/01/14 07:54:05;;;;;;;26.08;9.80;;;5.80;99.90;;;;;;5006465;28;20496;-86
2022/01/14 07:56:45;;;;;;;20.83;10.60;;;5.80;99.90;;;;;;5011806;28;20494;-89
2022/01/14 07:59:17;;;;;;;27.67;9.38;;;5.60;99.90;;;;;;4990929;28;20635;-84
2022/01/14 08:01:44;;;;;;;29.00;10.35;;;6.20;99.90;;;;;;5009825;28;20132;-85
2022/01/14 08:04:10;;;;;;;28.85;10.85;;;7.20;99.90;;;;;;4998010;28;20049;-86
2022/01/14 08:06:45;;;;;;;22.15;8.98;;;5.80;99.90;;;;;;5009061;28;20491;-84
2022/01/14 08:09:11;;;;;;;22.75;9.88;;;5.90;99.90;;;;;;5009325;28;20072;-84
2022/01/14 08:11:36;;;;;;;30.75;11.77;;;6.60;99.90;;;;;;4994532;28;20050;-85
2022/01/14 08:14:02;;;;;;;18.10;9.68;;;6.00;99.90;;;;;;4999427;28;20041;-83
2022/01/14 08:16:28;;;;;;;23.10;10.10;;;5.60;99.90;;;;;;5008173;28;20064;-84
2022/01/14 08:18:53;;;;;;;25.23;9.85;;;5.40;99.90;;;;;;5008653;28;20441;-85
2022/01/14 08:21:19;;;;;;;21.92;9.65;;;5.60;99.90;;;;;;5000698;28;20056;-83
2022/01/14 08:23:45;;;;;;;21.58;9.48;;;5.90;99.90;;;;;;4999577;28;20484;-84
2022/01/14 08:26:10;;;;;;;21.30;9.82;;;5.90;99.90;;;;;;5004365;28;20092;-84
2022/01/14 08:28:36;;;;;;;27.80;10.73;;;5.90;99.90;;;;;;5004105;28;20069;-88
2022/01/14 08:31:02;;;;;;;25.92;10.32;;;6.10;99.90;;;;;;4999877;28;20054;-89
2022/01/14 08:33:27;;;;;;;27.15;9.32;;;5.90;99.90;;;;;;5004838;28;20444;-88
2022/01/14 08:35:53;;;;;;;23.45;10.43;;;5.90;99.90;;;;;;5003126;28;20145;-89
2022/01/14 08:38:18;;;;;;;21.08;8.93;;;5.80;99.90;;;;;;4992147;28;20042;-89
2022/01/14 08:40:45;;;;;;;22.83;8.90;;;6.00;99.90;;;;;;4983692;28;20069;-89
2022/01/14 08:43:10;;;;;;;23.70;9.63;;;6.00;99.90;;;;;;5007221;28;20500;-89
2022/01/14 08:45:37;;;;;;;17.38;9.02;;;5.90;99.90;;;;;;5006091;28;20125;-89
2022/01/14 08:48:03;;;;;;;18.58;8.70;;;6.00;99.90;;;;;;5000719;28;20121;-82
2022/01/14 08:50:35;;;;;;;21.30;8.52;;;6.00;99.90;;;;;;4985865;28;20137;-88
2022/01/14 08:53:05;;;;;;;20.27;7.43;;;5.90;99.90;;;;;;5000926;28;20505;-88
2022/01/14 08:55:31;;;;;;;23.63;9.05;;;6.10;99.90;;;;;;5000473;28;20077;-87
2022/01/14 08:57:57;;;;;;;24.88;7.90;;;6.00;99.90;;;;;;4999203;28;20081;-87
2022/01/14 09:00:24;;;;;;;15.55;7.43;;;6.10;99.90;;;;;;4988743;28;20181;-86
2022/01/14 09:02:51;;;;;;;23.88;7.55;;;6.10;99.90;;;;;;5004880;28;20049;-89
2022/01/14 09:05:17;;;;;;;20.33;7.70;;;6.10;99.90;;;;;;5008811;28;20057;-88
2022/01/14 09:07:43;;;;;;;25.48;7.05;;;6.20;99.90;;;;;;5002122;28;20050;-89
2022/01/14 09:10:09;;;;;;;15.23;5.97;;;6.00;99.90;;;;;;5004222;28;20069;-89
2022/01/14 09:12:35;;;;;;;21.55;6.35;;;6.20;99.90;;;;;;4999910;28;20053;-84
2022/01/14 09:15:02;;;;;;;17.50;5.80;;;6.20;99.90;;;;;;5003990;28;20046;-88
2022/01/14 09:17:28;;;;;;;19.75;6.10;;;6.10;99.90;;;;;;5005004;28;20418;-89
2022/01/14 09:19:54;;;;;;;20.58;6.13;;;6.20;99.90;;;;;;5015221;28;20050;-85
2022/01/14 09:22:20;;;;;;;13.73;5.25;;;6.30;99.90;;;;;;5003039;28;20113;-89
2022/01/14 09:24:47;;;;;;;14.25;6.43;;;6.30;99.90;;;;;;5002432;28;20148;-81
2022/01/14 09:27:14;;;;;;;20.48;5.60;;;6.30;99.90;;;;;;5003109;28;20120;-89
2022/01/14 09:29:40;;;;;;;15.35;4.78;;;6.30;99.90;;;;;;4999598;28;20553;-86
2022/01/14 09:32:07;;;;;;;14.52;4.13;;;6.30;99.90;;;;;;4995437;28;20081;-87
2022/01/14 09:34:34;;;;;;;19.35;4.57;;;6.40;99.90;;;;;;5001067;28;20045;-81
2022/01/14 09:37:00;;;;;;;16.10;5.25;;;6.40;99.90;;;;;;4998429;28;20048;-90
2022/01/14 09:39:25;;;;;;;18.98;4.60;;;6.40;99.90;;;;;;4998712;28;20042;-85
2022/01/14 09:41:51;;;;;;;14.93;3.72;;;6.50;99.90;;;;;;4982852;28;20042;-84
2022/01/14 09:44:18;;;;;;;12.75;3.35;;;6.50;99.90;;;;;;5003114;28;20108;-89
2022/01/14 09:46:48;;;;;;;12.43;3.65;;;6.30;99.90;;;;;;5002858;28;20054;-87
2022/01/14 09:49:14;;;;;;;18.38;4.43;;;6.50;99.90;;;;;;5000413;28;20054;-89
2022/01/14 09:51:40;;;;;;;11.43;3.42;;;6.50;99.90;;;;;;5009469;28;20402;-82
2022/01/14 09:54:06;;;;;;;15.75;3.35;;;6.60;99.90;;;;;;4990227;28;20042;-89
2022/01/14 09:56:33;;;;;;;19.55;3.67;;;6.60;99.90;;;;;;5001876;28;20455;-89
2022/01/14 09:58:59;;;;;;;18.05;3.63;;;6.60;99.90;;;;;;5002739;28;20399;-84
2022/01/14 10:01:25;;;;;;;19.58;3.58;;;6.60;99.90;;;;;;5003425;28;20502;-83
2022/01/14 10:04:02;;;;;;;16.05;4.15;;;6.60;99.90;;;;;;5018105;28;20054;-89
2022/01/14 10:06:41;;;;;;;13.23;2.78;;;6.70;99.90;;;;;;5009814;28;20046;-89
2022/01/14 10:09:21;;;;;;;13.70;3.17;;;6.70;99.90;;;;;;4992166;28;20168;-81
2022/01/14 10:12:08;;;;;;;13.57;3.42;;;6.70;99.90;;;;;;5002050;28;20087;-89
2022/01/14 10:14:39;;;;;;;11.75;3.38;;;6.70;99.90;;;;;;4992539;28;20565;-81
2022/01/14 10:17:09;;;;;;;19.42;3.28;;;6.60;99.90;;;;;;4998007;28;20069;-82
2022/01/14 10:19:39;;;;;;;15.18;3.17;;;6.70;99.90;;;;;;5024738;28;20436;-89
2022/01/14 10:22:22;;;;;;;14.63;3.72;;;6.80;99.90;;;;;;5001363;28;20466;-81
2022/01/14 10:25:06;;;;;;;18.52;3.03;;;6.80;99.90;;;;;;5001072;28;20049;-90
2022/01/14 10:27:36;;;;;;;12.13;2.27;;;6.80;99.90;;;;;;4994945;28;20108;-81
2022/01/14 10:30:28;;;;;;;12.35;2.28;;;6.80;99.90;;;;;;4995754;28;20324;-85
2022/01/14 10:33:08;;;;;;;12.25;2.70;;;6.80;99.90;;;;;;5010121;28;20062;-84
2022/01/14 10:35:42;;;;;;;14.23;2.45;;;6.80;99.90;;;;;;5007075;28;20141;-90
2022/01/14 10:38:10;;;;;;;;;;;6.80;99.90;;;;;;5022198;28;20769;-81
2022/01/14 10:40:41;;;;;;;11.27;1.98;;;6.80;99.90;;;;;;5004268;28;20369;-88
2022/01/14 10:43:11;;;;;;;12.38;2.30;;;6.70;99.90;;;;;;4992456;28;20054;-89
2022/01/14 10:45:38;;;;;;;12.07;2.65;;;6.60;99.90;;;;;;5004800;28;20069;-85
2022/01/14 10:48:13;;;;;;;16.80;3.38;;;6.80;99.90;;;;;;5007820;28;20053;-82
2022/01/14 10:50:45;;;;;;;11.25;2.42;;;6.80;99.90;;;;;;5005420;28;20049;-90
2022/01/14 10:53:14;;;;;;;19.67;3.70;;;6.80;99.90;;;;;;4997428;28;20125;-90
2022/01/14 10:55:48;;;;;;;13.57;2.92;;;6.80;99.90;;;;;;4997794;28;20039;-81
2022/01/14 10:58:16;;;;;;;14.10;2.60;;;6.80;99.90;;;;;;5021260;28;20053;-87
2022/01/14 11:00:50;;;;;;;14.48;3.15;;;6.80;99.90;;;;;;4995743;28;20050;-88
2022/01/14 11:03:31;;;;;;;16.38;3.22;;;6.80;99.90;;;;;;4980676;28;20042;-88
2022/01/14 11:06:30;;;;;;;13.25;2.80;;;6.70;99.90;;;;;;4996185;28;20049;-89
2022/01/14 11:09:08;;;;;;;11.63;3.13;;;6.90;99.90;;;;;;4996970;28;20046;-88
2022/01/14 11:11:37;;;;;;;12.38;2.88;;;6.80;99.90;;;;;;5000522;28;20137;-82
2022/01/14 11:14:04;;;;;;;19.90;3.58;;;6.90;99.90;;;;;;5003368;28;20570;-84
2022/01/14 11:16:30;;;;;;;13.93;3.10;;;6.90;99.90;;;;;;5006127;28;20128;-84
2022/01/14 11:18:58;;;;;;;15.40;3.20;;;6.80;99.90;;;;;;4996887;28;20054;-89
2022/01/14 11:24:20;;;;;;;16.58;3.20;;;6.80;99.90;;;;;;5007610;28;20050;-90
2022/01/14 11:26:49;;;;;;;15.38;3.75;;;6.90;99.90;;;;;;4995776;28;20410;-89
2022/01/14 11:29:17;;;;;;;11.07;2.75;;;6.80;99.90;;;;;;4999056;28;20537;-88
2022/01/14 11:31:43;;;;;;;15.10;3.25;;;6.90;99.90;;;;;;5005262;28;20046;-89
2022/01/14 11:34:31;;;;;;;11.43;3.30;;;6.90;99.90;;;;;;5008964;28;20037;-89
2022/01/14 11:36:59;;;;;;;21.20;4.55;;;6.90;99.90;;;;;;5008212;28;20168;-90
2022/01/14 11:39:31;;;;;;;16.20;4.65;;;6.90;99.90;;;;;;5011376;28;20083;-89
2022/01/14 11:41:58;;;;;;;13.95;3.30;;;6.90;99.90;;;;;;5004325;28;20052;-86
2022/01/14 11:44:43;;;;;;;24.17;5.03;;;6.90;99.90;;;;;;5007220;28;20154;-82
2022/01/14 11:47:41;;;;;;;12.82;3.20;;;6.90;99.90;;;;;;5007378;28;20049;-87
2022/01/14 11:50:32;;;;;;;19.52;3.25;;;6.90;99.90;;;;;;4996270;28;20053;-88
2022/01/14 11:52:59;;;;;;;18.98;3.47;;;6.90;99.90;;;;;;5004922;28;20053;-81
2022/01/14 11:55:29;;;;;;;15.07;3.70;;;6.90;99.90;;;;;;5001074;28;20046;-82
2022/01/14 11:57:59;;;;;;;13.20;4.38;;;6.80;99.90;;;;;;5010652;28;20524;-81
2022/01/14 12:00:25;;;;;;;17.02;3.65;;;7.30;99.90;;;;;;5005406;28;20053;-82
2022/01/14 12:02:55;;;;;;;21.75;4.15;;;7.00;99.90;;;;;;4996505;28;20033;-87
2022/01/14 12:05:28;;;;;;;10.80;3.45;;;7.00;99.90;;;;;;4996048;28;20053;-82
2022/01/14 12:08:03;;;;;;;12.93;2.97;;;7.00;99.90;;;;;;5005269;28;20049;-81
2022/01/14 12:10:45;;;;;;;20.25;3.60;;;7.00;99.90;;;;;;4994480;28;20103;-81
2022/01/14 12:13:37;;;;;;;16.10;3.03;;;7.00;99.90;;;;;;5000622;28;20496;-89
2022/01/14 12:16:36;;;;;;;18.35;3.03;;;7.00;99.90;;;;;;5005961;28;20045;-83
2022/01/14 12:19:02;;;;;;;18.42;3.50;;;7.00;99.90;;;;;;5003281;28;20042;-81
2022/01/14 12:21:37;;;;;;;18.70;3.58;;;6.90;99.90;;;;;;5006125;28;20477;-89
2022/01/14 12:24:27;;;;;;;20.60;4.28;;;6.90;99.90;;;;;;5006538;28;20056;-82
2022/01/14 12:26:52;;;;;;;16.35;2.90;;;6.90;99.90;;;;;;5008013;28;20089;-87
2022/01/14 12:29:32;;;;;;;12.48;2.97;;;7.00;99.90;;;;;;5007198;28;20058;-81
2022/01/14 12:32:19;;;;;;;21.30;3.78;;;7.00;99.90;;;;;;5009191;28;20059;-83
2022/01/14 12:34:57;;;;;;;16.45;4.85;;;7.00;99.90;;;;;;4989910;28;20069;-87
2022/01/14 12:37:31;;;;;;;19.83;3.97;;;6.90;99.90;;;;;;4997443;28;20088;-83
2022/01/14 12:40:02;;;;;;;16.25;3.53;;;7.00;99.90;;;;;;5005217;28;20089;-89
2022/01/14 12:42:28;;;;;;;12.90;4.22;;;6.90;99.90;;;;;;5010319;28;20049;-81
2022/01/14 12:44:54;;;;;;;12.73;3.78;;;7.00;99.90;;;;;;5002827;28;20457;-81
2022/01/14 12:47:25;;;;;;;10.77;2.90;;;7.40;99.90;;;;;;5002579;28;20077;-85
2022/01/14 12:49:52;;;;;;;19.13;3.85;;;7.00;99.90;;;;;;5003599;28;20052;-89
2022/01/14 12:52:38;;;;;;;20.60;4.55;;;7.00;99.90;;;;;;5002897;28;20042;-81
2022/01/14 12:55:10;;;;;;;21.70;4.50;;;7.00;99.90;;;;;;4999133;28;20051;-83
2022/01/14 12:57:36;;;;;;;21.40;4.95;;;7.00;99.90;;;;;;5004167;28;20042;-89
2022/01/14 13:00:05;;;;;;;19.30;4.40;;;7.00;99.90;;;;;;4996454;28;20042;-81
2022/01/14 13:02:31;;;;;;;20.30;4.35;;;7.00;99.90;;;;;;5006764;28;20053;-89
2022/01/14 13:05:16;;;;;;;20.73;4.05;;;7.00;99.90;;;;;;5002666;28;20041;-89
2022/01/14 13:07:42;;;;;;;29.92;5.03;;;7.00;99.90;;;;;;4987774;28;20128;-81
2022/01/14 13:10:09;;;;;;;24.90;4.65;;;7.00;99.90;;;;;;5003891;28;20113;-84
2022/01/14 13:12:41;;;;;;;20.75;3.95;;;7.00;99.90;;;;;;5002494;28;20081;-82
2022/01/14 13:15:13;;;;;;;17.88;4.85;;;8.80;99.90;;;;;;5002851;28;20046;-87
2022/01/14 13:17:44;;;;;;;24.75;6.20;;;7.00;99.90;;;;;;4999158;28;20046;-83